Time;durP1;ratioP1;P1;durP2;ratioP2;P2;SDS_P1;SDS_P2;PMS_P1;PMS_P2;Temp;Humidity;BMP_temperature;BMP_pressure;BME280_temperature;BME280_humidity;BME280_pressure;Samples;Min_cycle;Max_cycle;Signal;HPM_P1;HPM_P2
2023/01/05 00:01:15;;;;;;;13.87;7.57;;;;;;;-8.16;94.20;101186.81;5034429;28;20060;-65
2023/01/05 00:03:41;;;;;;;12.33;7.73;;;;;;;-8.17;95.08;101185.13;5017282;28;20373;-65
2023/01/05 00:06:11;;;;;;;14.50;7.20;;;;;;;-8.14;94.84;101179.88;5034185;28;20033;-64
2023/01/05 00:08:38;;;;;;;17.58;7.35;;;;;;;-8.11;94.79;101169.47;5034829;28;20021;-67
2023/01/05 00:22:30;;;;;;;13.77;8.55;;;;;;;-8.12;95.07;101172.94;5032833;28;20021;-67
2023/01/05 00:24:56;;;;;;;12.48;8.32;;;;;;;-8.12;95.16;101185.84;5032706;28;20036;-66
2023/01/05 00:27:21;;;;;;;12.90;7.73;;;;;;;-8.22;95.71;101163.72;5032379;28;20033;-66
2023/01/05 00:29:46;;;;;;;12.87;7.13;;;;;;;-8.17;95.69;101177.38;5032045;28;20049;-66
2023/01/05 00:32:12;;;;;;;15.97;7.80;;;;;;;-8.19;96.24;101177.41;5032534;28;20079;-67
2023/01/05 00:34:37;;;;;;;9.43;6.60;;;;;;;-8.21;95.95;101173.16;5032480;28;20384;-65
2023/01/05 00:37:03;;;;;;;16.77;7.63;;;;;;;-8.26;96.11;101164.66;5032667;28;20083;-70
2023/01/05 00:39:28;;;;;;;14.03;7.83;;;;;;;-8.24;96.28;101168.06;5032473;28;20025;-66
2023/01/05 00:41:54;;;;;;;15.37;7.80;;;;;;;-8.17;96.69;101167.03;5033226;28;20034;-65
2023/01/05 00:44:19;;;;;;;9.13;6.63;;;;;;;-7.96;96.37;101169.13;5015751;28;20496;-65
2023/01/05 00:46:45;;;;;;;12.80;8.57;;;;;;;-7.87;95.85;101158.56;5032532;28;20107;-66
2023/01/05 00:49:10;;;;;;;13.10;8.07;;;;;;;-7.77;96.23;101158.38;5032381;28;20029;-65
2023/01/05 00:51:36;;;;;;;12.63;7.00;;;;;;;-7.72;95.74;101146.16;5032394;28;20457;-65
2023/01/05 00:54:01;;;;;;;10.37;6.47;;;;;;;-7.66;95.07;101156.34;5032364;28;20037;-65
2023/01/05 00:56:27;;;;;;;10.40;6.40;;;;;;;-7.67;95.29;101160.69;5014614;28;20068;-66
2023/01/05 00:58:53;;;;;;;10.53;6.17;;;;;;;-7.81;95.96;101137.75;5031908;28;20030;-66
2023/01/05 01:01:20;;;;;;;7.40;4.90;;;;;;;-7.69;95.95;101159.03;5032286;28;20039;-66
2023/01/05 01:03:45;;;;;;;8.40;6.00;;;;;;;-7.78;95.66;101157.50;5014594;28;20531;-64
2023/01/05 01:06:12;;;;;;;9.57;5.63;;;;;;;-7.88;95.77;101151.69;5031972;28;20033;-64
2023/01/05 01:08:38;;;;;;;9.13;6.15;;;;;;;-7.93;96.12;101158.72;5032098;28;20458;-68
2023/01/05 01:11:06;;;;;;;7.20;5.22;;;;;;;-8.15;96.44;101134.25;5032084;28;20033;-66
2023/01/05 01:13:31;;;;;;;7.82;5.82;;;;;;;-8.21;96.32;101143.00;5031839;28;20052;-68
2023/01/05 01:15:57;;;;;;;8.43;5.13;;;;;;;-8.36;96.43;101148.56;5032067;28;20431;-68
2023/01/05 01:18:23;;;;;;;9.33;5.17;;;;;;;-8.52;97.04;101137.69;5014631;28;20530;-67
2023/01/05 01:20:48;;;;;;;7.67;5.23;;;;;;;-8.78;97.65;101117.59;5031873;28;20120;-66
2023/01/05 01:23:14;;;;;;;9.30;5.83;;;;;;;-8.58;97.32;101155.91;5031941;28;20029;-65
2023/01/05 01:25:39;;;;;;;12.20;5.67;;;;;;;-8.63;97.76;101149.16;5031730;28;20036;-65
2023/01/05 01:28:05;;;;;;;9.30;5.80;;;;;;;-8.67;97.81;101157.81;5031529;28;20037;-64
2023/01/05 01:30:31;;;;;;;13.80;7.63;;;;;;;-8.74;97.88;101154.50;5031735;28;20029;-65
2023/01/05 01:32:56;;;;;;;7.87;5.90;;;;;;;-8.72;98.29;101150.16;5014182;28;20091;-66
2023/01/05 01:35:21;;;;;;;7.80;5.93;;;;;;;-8.74;98.25;101146.78;5031813;28;20104;-66
2023/01/05 01:37:47;;;;;;;8.30;5.93;;;;;;;-8.67;97.87;101147.50;5031568;28;20022;-67
2023/01/05 01:40:12;;;;;;;10.60;7.23;;;;;;;-8.72;97.67;101144.16;5014667;28;20036;-69
2023/01/05 01:42:38;;;;;;;10.77;4.70;;;;;;;-8.68;97.93;101156.97;5017800;28;20124;-66
2023/01/05 01:45:16;;;;;;;8.37;7.47;;;;;;;-8.72;98.11;101134.69;5035760;28;20029;-65
2023/01/05 01:47:51;;;;;;;8.02;4.70;;;;;;;-8.67;97.73;101137.16;5035585;28;20384;-65
2023/01/05 01:50:21;;;;;;;5.72;4.57;;;;;;;-8.73;98.10;101140.72;5035574;28;20049;-65
2023/01/05 01:52:49;;;;;;;9.48;6.38;;;;;;;-8.80;97.98;101139.16;5035472;28;20036;-69
2023/01/05 01:55:16;;;;;;;13.45;5.45;;;;;;;-8.76;97.86;101151.13;5017881;28;20551;-66
2023/01/05 01:57:44;;;;;;;10.30;6.78;;;;;;;-8.81;98.42;101134.88;5018548;28;20429;-66
2023/01/05 02:00:13;;;;;;;10.35;5.70;;;;;;;-8.65;98.67;101140.59;5035483;28;20029;-66
2023/01/05 02:02:39;;;;;;;9.50;6.03;;;;;;;-8.53;98.54;101146.31;5035522;28;20530;-64
2023/01/05 02:05:10;;;;;;;9.60;5.43;;;;;;;-8.43;98.05;101144.38;5035314;28;20351;-66
2023/01/05 02:07:42;;;;;;;9.77;5.93;;;;;;;-8.49;97.95;101147.97;5034954;28;20084;-66
2023/01/05 02:10:08;;;;;;;11.15;6.07;;;;;;;-8.58;98.28;101126.66;5035478;28;20029;-65
2023/01/05 02:12:59;;;;;;;12.83;6.07;;;;;;;-8.56;97.94;101145.53;5017625;28;20033;-65
2023/01/05 02:15:35;;;;;;;13.02;5.40;;;;;;;-8.64;98.30;101142.28;5011589;28;20045;-64
2023/01/05 02:18:19;;;;;;;10.60;5.30;;;;;;;-8.70;98.68;101130.31;5034957;28;20041;-65
2023/01/05 02:21:00;;;;;;;10.50;5.65;;;;;;;-8.65;98.65;101138.00;5035124;28;20036;-64
2023/01/05 02:23:56;;;;;;;7.60;5.00;;;;;;;-8.63;98.32;101134.50;5035099;28;20033;-63
2023/01/05 02:26:28;;;;;;;10.07;5.43;;;;;;;-8.65;98.51;101140.59;5034697;28;20356;-66
2023/01/05 02:29:18;;;;;;;7.63;6.57;;;;;;;-8.68;98.53;101136.31;5035066;28;20061;-65
2023/01/05 02:31:51;;;;;;;8.40;5.65;;;;;;;-8.71;98.79;101146.69;5035098;28;20476;-65
2023/01/05 02:34:53;;;;;;;11.85;6.95;;;;;;;-8.73;98.45;101147.63;5034660;28;20112;-66
2023/01/05 02:37:38;;;;;;;8.68;5.95;;;;;;;-8.80;98.71;101136.56;5034759;28;20030;-67
2023/01/05 02:40:30;;;;;;;12.35;6.00;;;;;;;-8.85;98.36;101122.91;5034673;28;20032;-67
2023/01/05 02:42:58;;;;;;;8.20;5.85;;;;;;;-8.79;98.50;101133.97;5027955;28;20033;-63
2023/01/05 02:45:23;;;;;;;9.35;5.13;;;;;;;-8.78;98.56;101127.91;5034814;28;20021;-66
2023/01/05 02:47:49;;;;;;;15.63;6.43;;;;;;;-8.82;98.67;101128.00;5034902;28;20484;-64
2023/01/05 02:50:18;;;;;;;9.97;5.07;;;;;;;-8.73;98.22;101132.97;5034769;28;20044;-66
2023/01/05 02:52:55;;;;;;;12.27;6.40;;;;;;;-8.68;97.95;101136.31;5016456;28;20032;-67
2023/01/05 02:55:31;;;;;;;6.47;5.75;;;;;;;-8.64;97.62;101142.28;5034245;28;20410;-65
2023/01/05 02:58:16;;;;;;;10.25;6.18;;;;;;;-8.64;97.39;101139.72;5034428;28;20116;-66
2023/01/05 03:00:47;;;;;;;11.80;4.65;;;;;;;-8.70;97.35;101138.06;5034463;28;20039;-65
2023/01/05 03:03:20;;;;;;;7.85;6.00;;;;;;;-8.76;97.15;101138.22;4999952;28;20024;-66
2023/01/05 03:05:55;;;;;;;9.13;5.50;;;;;;;-8.75;97.56;101145.06;5033963;28;20037;-66
2023/01/05 03:08:23;;;;;;;7.30;5.53;;;;;;;-8.79;97.88;101146.03;5034248;28;20033;-65
2023/01/05 03:13:47;;;;;;;11.52;5.47;;;;;;;-8.82;98.15;101131.44;5034330;28;20021;-66
2023/01/05 03:16:29;;;;;;;9.80;5.68;;;;;;;-8.77;97.65;101142.53;5033861;28;20050;-65
2023/01/05 03:35:41;;;;;;;14.23;5.22;;;;;;;-8.06;95.25;101141.81;5033722;28;20026;-65
2023/01/05 03:38:20;;;;;;;7.90;5.00;;;;;;;-8.03;94.77;101133.97;5033555;28;20034;-65
2023/01/05 03:40:49;;;;;;;9.65;5.97;;;;;;;-8.05;94.98;101140.94;5033731;28;20377;-67
2023/01/05 03:43:15;;;;;;;8.57;4.75;;;;;;;-8.12;95.76;101144.50;5033118;28;20156;-64
2023/01/05 03:45:44;;;;;;;10.50;5.37;;;;;;;-8.17;96.91;101143.78;5033379;28;20124;-66
2023/01/05 03:48:10;;;;;;;8.65;5.15;;;;;;;-8.31;96.78;101120.00;5033683;28;20492;-64
2023/01/05 03:50:36;;;;;;;11.00;6.60;;;;;;;-8.16;97.36;101141.16;5033381;28;20037;-67
2023/01/05 03:53:03;;;;;;;9.82;5.05;;;;;;;-8.05;97.00;101137.50;5033777;28;20481;-63
2023/01/05 03:55:30;;;;;;;7.80;5.10;;;;;;;-8.13;96.68;101140.22;5033121;28;20041;-66
2023/01/05 03:57:56;;;;;;;7.50;4.83;;;;;;;-8.21;96.88;101122.31;5033027;28;20037;-65
2023/01/05 04:00:21;;;;;;;14.27;6.10;;;;;;;-8.09;96.32;101154.81;5033278;28;20029;-66
2023/01/05 04:02:46;;;;;;;9.67;5.60;;;;;;;-8.22;96.66;101140.44;5032766;28;20450;-64
2023/01/05 04:05:12;;;;;;;9.47;5.50;;;;;;;-8.31;96.91;101146.69;5033454;28;20029;-64
2023/01/05 04:07:37;;;;;;;12.10;5.47;;;;;;;-8.39;97.12;101140.84;5033306;28;20034;-65
2023/01/05 04:10:04;;;;;;;11.07;5.43;;;;;;;-8.39;97.10;101142.59;5032947;28;20040;-64
2023/01/05 04:12:29;;;;;;;15.82;6.53;;;;;;;-8.37;96.28;101151.19;5033287;28;20034;-66
2023/01/05 04:14:58;;;;;;;6.73;4.47;;;;;;;-8.36;95.86;101138.22;5033753;28;20048;-66
2023/01/05 04:17:25;;;;;;;12.93;6.50;;;;;;;-8.40;96.00;101127.97;5033421;28;20034;-66
2023/01/05 04:19:50;;;;;;;13.03;5.50;;;;;;;-8.41;96.00;101132.28;5015542;28;20029;-66
2023/01/05 04:22:17;;;;;;;8.50;4.70;;;;;;;-8.47;95.32;101143.59;5015310;28;20382;-67
2023/01/05 04:24:42;;;;;;;8.50;5.50;;;;;;;-8.64;94.60;101106.13;5032913;28;20034;-65
2023/01/05 04:27:08;;;;;;;10.77;5.50;;;;;;;-8.61;94.22;101118.97;5014873;28;20041;-65
2023/01/05 04:29:33;;;;;;;9.40;5.60;;;;;;;-8.63;94.06;101129.34;5032526;28;20155;-66
2023/01/05 04:31:59;;;;;;;9.33;5.40;;;;;;;-8.72;93.54;101132.09;5033397;28;20047;-66
2023/01/05 04:34:24;;;;;;;6.17;5.13;;;;;;;-8.88;93.61;101102.34;5033279;28;20434;-65
2023/01/05 04:36:50;;;;;;;9.77;6.17;;;;;;;-8.84;92.88;101109.13;5015236;28;20106;-64
2023/01/05 04:39:15;;;;;;;14.50;6.57;;;;;;;-8.91;92.72;101097.25;5032755;28;20090;-65
2023/01/05 04:41:41;;;;;;;6.13;4.50;;;;;;;-8.77;92.73;101124.44;5032520;28;20025;-65
2023/01/05 04:44:06;;;;;;;13.33;6.03;;;;;;;-8.87;92.14;101116.94;5032415;28;20047;-64
2023/01/05 04:46:32;;;;;;;8.80;5.47;;;;;;;-8.84;92.70;101129.78;5033978;28;20030;-68
2023/01/05 04:48:57;;;;;;;6.37;4.03;;;;;;;-8.92;92.50;101111.03;5032382;28;20031;-65
2023/01/05 04:51:23;;;;;;;14.97;7.40;;;;;;;-8.88;91.69;101123.00;5032250;28;20027;-67
2023/01/05 04:53:49;;;;;;;11.50;5.37;;;;;;;-8.93;92.38;101114.50;5032316;28;20033;-64
2023/01/05 04:56:20;;;;;;;12.57;6.53;;;;;;;-8.89;92.54;101121.28;5032085;28;20039;-64
2023/01/05 04:58:45;;;;;;;5.50;4.60;;;;;;;-8.87;92.35;101124.69;5032603;28;20033;-66
2023/01/05 05:01:11;;;;;;;10.10;5.23;;;;;;;-8.96;92.21;101112.81;5032072;28;20112;-68
2023/01/05 05:03:36;;;;;;;8.27;6.13;;;;;;;-9.11;92.95;101095.91;5032077;28;20056;-66
2023/01/05 05:06:02;;;;;;;6.87;5.57;;;;;;;-8.98;92.82;101116.28;5031957;28;20025;-65
2023/01/05 05:08:27;;;;;;;13.00;5.63;;;;;;;-9.03;93.23;101113.81;5031916;28;20502;-64
2023/01/05 05:10:53;;;;;;;7.50;5.17;;;;;;;-9.04;93.54;101112.09;5031862;28;20027;-66
2023/01/05 05:13:18;;;;;;;8.70;5.03;;;;;;;-9.08;93.72;101108.75;5031908;28;20048;-63
2023/01/05 05:15:45;;;;;;;10.93;7.93;;;;;;;-9.04;94.15;101111.25;5031560;28;20107;-66
2023/01/05 05:18:11;;;;;;;7.78;5.10;;;;;;;-9.03;94.71;101123.28;5032030;28;20038;-66
2023/01/05 05:20:40;;;;;;;11.40;5.43;;;;;;;-9.07;94.30;101107.00;5031907;28;20040;-65
2023/01/05 05:23:05;;;;;;;7.18;4.97;;;;;;;-9.08;94.99;101105.31;5032620;28;20045;-66
2023/01/05 05:25:31;;;;;;;10.37;6.37;;;;;;;-9.09;95.39;101104.47;5036601;28;20503;-66
2023/01/05 05:27:56;;;;;;;11.97;5.17;;;;;;;-9.02;95.37;101117.22;5032980;28;20029;-65
2023/01/05 05:30:22;;;;;;;11.57;6.20;;;;;;;-8.98;95.69;101124.03;5032286;28;20104;-63
2023/01/05 05:32:47;;;;;;;12.53;6.00;;;;;;;-8.93;95.79;101124.81;5032555;28;20057;-66
2023/01/05 05:35:13;;;;;;;10.23;6.47;;;;;;;-8.91;95.73;101112.72;5032242;28;20064;-65
2023/01/05 05:37:38;;;;;;;11.83;5.07;;;;;;;-8.81;95.72;101129.72;5031930;28;20056;-67
2023/01/05 05:40:05;;;;;;;10.40;6.03;;;;;;;-8.79;95.84;101117.63;5031672;28;20025;-70
2023/01/05 05:42:30;;;;;;;10.23;5.72;;;;;;;-8.73;95.71;101122.66;5031761;28;20021;-66
2023/01/05 05:44:56;;;;;;;12.43;6.13;;;;;;;-8.69;96.17;101119.13;5031686;28;20030;-66
2023/01/05 05:47:21;;;;;;;9.03;5.60;;;;;;;-8.59;96.20;101130.97;5031628;28;20124;-66
2023/01/05 05:49:47;;;;;;;9.33;6.43;;;;;;;-8.57;96.04;101128.34;5031804;28;20026;-65
2023/01/05 05:52:12;;;;;;;9.83;5.40;;;;;;;-8.54;96.78;101123.13;5013767;28;20025;-65
2023/01/05 05:54:38;;;;;;;9.07;5.53;;;;;;;-8.38;96.94;101126.19;5031675;28;20033;-63
2023/01/05 05:57:04;;;;;;;21.10;6.22;;;;;;;-8.27;96.48;101126.78;5031771;28;20515;-65
2023/01/05 05:59:29;;;;;;;13.20;6.13;;;;;;;-8.29;96.89;101119.09;5032047;28;20132;-64
2023/01/05 06:01:55;;;;;;;8.87;4.97;;;;;;;-8.16;96.36;101130.81;5031462;28;20033;-66
2023/01/05 06:04:20;;;;;;;10.50;5.20;;;;;;;-8.18;95.37;101126.56;5031529;28;20025;-67
2023/01/05 06:06:46;;;;;;;9.30;5.53;;;;;;;-8.17;95.43;101123.09;5031288;28;20037;-67
2023/01/05 06:09:11;;;;;;;9.07;5.50;;;;;;;-8.34;94.85;101107.19;5031361;28;20025;-67
2023/01/05 06:11:37;;;;;;;8.73;6.17;;;;;;;-8.25;95.58;101119.84;5031684;28;20036;-68
2023/01/05 06:14:03;;;;;;;13.43;5.97;;;;;;;-8.18;95.46;101127.41;5031413;28;20163;-65
2023/01/05 06:16:30;;;;;;;9.13;6.15;;;;;;;-8.12;95.56;101136.75;5031379;28;20483;-66
2023/01/05 06:18:56;;;;;;;9.57;6.72;;;;;;;-8.15;94.84;101127.34;5031341;28;20065;-67
2023/01/05 06:21:21;;;;;;;17.37;7.30;;;;;;;-8.17;95.35;101129.13;5031243;28;20053;-65
2023/01/05 06:23:47;;;;;;;12.77;8.33;;;;;;;-8.18;95.27;101126.56;5031069;28;20029;-65
2023/01/05 06:26:12;;;;;;;8.63;5.60;;;;;;;-8.20;95.04;101129.19;5031784;28;20540;-65
2023/01/05 06:28:38;;;;;;;7.83;5.70;;;;;;;-8.24;94.28;101132.72;5017387;28;20091;-66
2023/01/05 06:31:04;;;;;;;7.17;5.17;;;;;;;-8.50;95.36;101094.59;5034900;28;20030;-64
2023/01/05 06:33:29;;;;;;;10.07;6.23;;;;;;;-8.16;95.11;101145.47;5034867;28;20029;-65
2023/01/05 06:35:57;;;;;;;9.20;6.13;;;;;;;-8.18;95.13;101136.91;5034813;28;20484;-65
2023/01/05 06:38:22;;;;;;;12.68;7.28;;;;;;;-8.24;95.08;101137.06;5035035;28;20512;-65
2023/01/05 06:40:48;;;;;;;11.83;6.03;;;;;;;-8.28;94.93;101135.44;5017066;28;20121;-67
2023/01/05 06:43:13;;;;;;;9.97;6.80;;;;;;;-8.34;95.02;101128.69;5034503;28;20113;-67
2023/01/05 06:45:39;;;;;;;11.50;5.53;;;;;;;-8.26;95.57;101142.25;5034593;28;20026;-66
2023/01/05 06:48:04;;;;;;;7.77;6.03;;;;;;;-8.29;95.07;101138.91;5017037;28;20417;-66
2023/01/05 06:50:30;;;;;;;15.10;7.87;;;;;;;-8.32;94.87;101128.63;5034979;28;20120;-68
2023/01/05 06:52:57;;;;;;;13.25;6.90;;;;;;;-8.30;95.24;101144.94;5016856;28;20033;-64
2023/01/05 06:55:22;;;;;;;10.35;5.38;;;;;;;-8.24;95.37;101144.81;5016765;28;20053;-64
2023/01/05 06:57:48;;;;;;;10.20;6.60;;;;;;;-8.27;95.86;101131.97;5034718;28;20124;-67
2023/01/05 07:00:15;;;;;;;9.17;6.10;;;;;;;-8.19;95.28;101138.63;5034986;28;20044;-67
2023/01/05 07:02:40;;;;;;;10.95;6.68;;;;;;;-8.15;94.65;101142.00;5034232;28;20465;-67
2023/01/05 07:05:07;;;;;;;13.27;7.90;;;;;;;-8.11;94.57;101146.22;5034235;28;20044;-66
2023/01/05 07:07:32;;;;;;;12.23;6.75;;;;;;;-8.16;94.32;101132.56;5034026;28;20540;-67
2023/01/05 07:09:58;;;;;;;14.07;6.97;;;;;;;-8.06;94.08;101141.81;5034563;28;20121;-66
2023/01/05 07:12:24;;;;;;;10.97;6.87;;;;;;;-7.99;93.90;101160.59;5034526;28;20029;-64
2023/01/05 07:14:49;;;;;;;9.67;6.73;;;;;;;-8.02;94.50;101152.94;5017252;28;20056;-63
2023/01/05 07:17:15;;;;;;;10.07;6.53;;;;;;;-8.01;94.71;101160.63;5035468;28;20499;-65
2023/01/05 07:19:41;;;;;;;16.07;7.87;;;;;;;-8.06;94.43;101157.31;5035956;28;20045;-66
2023/01/05 07:22:07;;;;;;;12.07;5.80;;;;;;;-8.11;93.87;101166.88;5035909;28;20377;-65
2023/01/05 07:24:32;;;;;;;14.93;7.30;;;;;;;-8.16;94.49;101168.72;5035742;28;20104;-68
2023/01/05 07:26:58;;;;;;;6.00;5.23;;;;;;;-8.25;94.41;101149.13;5017170;28;20032;-66
2023/01/05 07:29:24;;;;;;;16.08;6.65;;;;;;;-8.17;94.79;101164.44;5034361;28;20131;-65
2023/01/05 07:31:52;;;;;;;10.00;6.03;;;;;;;-8.06;94.49;101178.00;5034101;28;20528;-66
2023/01/05 07:34:21;;;;;;;20.48;8.73;;;;;;;-8.11;93.90;101174.63;5033675;28;20022;-66
2023/01/05 07:36:47;;;;;;;7.60;5.72;;;;;;;-8.12;93.77;101172.94;5033775;28;20025;-68
2023/01/05 07:39:13;;;;;;;12.38;6.43;;;;;;;-8.15;93.77;101183.34;4999238;28;20032;-64
2023/01/05 07:41:39;;;;;;;12.10;6.27;;;;;;;-8.22;93.35;101184.38;5034025;28;20021;-65
2023/01/05 07:44:04;;;;;;;8.30;5.63;;;;;;;-8.19;94.54;101187.75;5033954;28;20037;-65
2023/01/05 07:46:30;;;;;;;10.63;6.13;;;;;;;-8.22;93.37;101185.22;5034666;28;20037;-65
2023/01/05 07:48:57;;;;;;;10.70;6.40;;;;;;;-8.25;93.22;101185.28;5033779;28;20022;-65
2023/01/05 07:51:23;;;;;;;9.23;6.10;;;;;;;-8.23;93.54;101193.88;5033398;28;20259;-65
2023/01/05 07:53:49;;;;;;;7.07;4.97;;;;;;;-8.15;93.62;101199.69;5015510;28;20029;-67
2023/01/05 07:56:14;;;;;;;8.37;5.87;;;;;;;-8.19;93.14;101208.41;5033130;28;20477;-66
2023/01/05 07:58:43;;;;;;;7.97;5.55;;;;;;;-8.27;91.44;101209.47;5033135;28;20461;-68
2023/01/05 08:01:12;;;;;;;6.73;5.57;;;;;;;-8.54;92.61;101188.53;5033076;28;20033;-69
2023/01/05 08:03:38;;;;;;;8.50;6.15;;;;;;;-8.45;94.72;101205.56;5032945;28;20035;-68
2023/01/05 08:06:09;;;;;;;11.43;5.80;;;;;;;-8.41;93.98;101216.69;5015084;28;20430;-67
2023/01/05 08:08:35;;;;;;;8.65;4.95;;;;;;;-8.44;94.77;101209.84;5033016;28;20029;-70
2023/01/05 08:11:07;;;;;;;7.55;5.35;;;;;;;-8.32;93.40;101224.22;5015043;28;20408;-66
2023/01/05 08:16:18;;;;;;;9.10;5.20;;;;;;;-8.32;92.22;101226.81;5033265;28;20091;-65
2023/01/05 08:18:43;;;;;;;6.97;5.18;;;;;;;-8.30;91.92;101230.22;5032985;28;20069;-66
2023/01/05 08:21:09;;;;;;;13.70;6.70;;;;;;;-8.24;90.82;101222.31;5015250;28;20201;-66
2023/01/05 08:23:35;;;;;;;8.17;5.67;;;;;;;-8.13;90.17;101228.09;5015176;28;20025;-67
2023/01/05 08:26:06;;;;;;;9.30;7.30;;;;;;;-8.24;89.33;101217.16;5032640;28;20021;-72
2023/01/05 08:28:34;;;;;;;8.82;5.47;;;;;;;-8.35;89.20;101222.59;5032769;28;20037;-68
2023/01/05 08:31:05;;;;;;;9.95;5.95;;;;;;;-8.42;88.89;101233.91;5032665;28;20523;-65
2023/01/05 08:33:31;;;;;;;7.90;5.07;;;;;;;-8.50;89.24;101234.06;5015222;28;20478;-68
2023/01/05 08:35:57;;;;;;;7.00;6.00;;;;;;;-8.48;89.01;101241.78;5032955;28;20033;-67
2023/01/05 08:38:23;;;;;;;7.90;5.80;;;;;;;-8.62;87.29;101242.06;5033076;28;20112;-68
2023/01/05 08:40:48;;;;;;;8.35;6.80;;;;;;;-8.82;88.18;101236.44;5014927;28;20346;-66
2023/01/05 08:43:14;;;;;;;9.03;5.70;;;;;;;-8.83;88.38;101265.72;5014889;28;20025;-69
2023/01/05 08:45:40;;;;;;;8.43;6.00;;;;;;;-8.92;88.75;101250.41;5032684;28;20045;-67
2023/01/05 08:48:05;;;;;;;8.73;6.65;;;;;;;-8.92;87.98;101259.00;5032522;28;20104;-67
2023/01/05 08:50:31;;;;;;;7.97;5.87;;;;;;;-8.92;88.03;101245.22;4997965;28;20137;-67
2023/01/05 08:52:57;;;;;;;8.37;6.00;;;;;;;-8.73;88.19;101261.22;5032405;28;20077;-68
2023/01/05 08:55:23;;;;;;;7.77;5.73;;;;;;;-8.70;88.13;101246.50;5032390;28;20030;-66
2023/01/05 08:57:49;;;;;;;8.17;5.53;;;;;;;-8.62;88.69;101254.13;5031890;28;20462;-65
2023/01/05 09:00:20;;;;;;;6.45;5.47;;;;;;;-8.46;89.25;101271.00;5014664;28;20061;-65
2023/01/05 09:02:46;;;;;;;10.80;7.00;;;;;;;-8.33;89.61;101263.88;5032474;28;20155;-65
2023/01/05 09:05:11;;;;;;;10.80;6.30;;;;;;;-8.21;89.93;101276.50;5032271;28;20474;-65
2023/01/05 09:07:37;;;;;;;7.93;5.67;;;;;;;-8.17;89.84;101283.31;5014484;28;20025;-65
2023/01/05 09:10:03;;;;;;;8.47;5.50;;;;;;;-8.22;90.24;101282.56;5032158;28;20021;-65
2023/01/05 09:12:29;;;;;;;8.80;5.65;;;;;;;-8.26;90.02;101283.50;5032052;28;20369;-66
2023/01/05 09:14:55;;;;;;;11.23;5.30;;;;;;;-8.34;89.55;101275.97;5031503;28;20057;-68
2023/01/05 09:17:23;;;;;;;11.45;5.90;;;;;;;-8.34;90.13;101281.13;5032010;28;20025;-67
2023/01/05 09:19:48;;;;;;;8.17;5.80;;;;;;;-8.46;89.93;101274.44;5032188;28;20104;-66
2023/01/05 09:22:14;;;;;;;7.90;5.33;;;;;;;-8.45;90.83;101286.47;5032207;28;20057;-65
2023/01/05 09:24:39;;;;;;;8.70;6.13;;;;;;;-8.38;90.97;101288.94;5031947;28;20029;-66
2023/01/05 09:27:06;;;;;;;7.73;5.63;;;;;;;-8.45;90.87;101277.88;5031793;28;20492;-65
2023/01/05 09:29:32;;;;;;;10.65;5.68;;;;;;;-8.41;91.21;101273.50;5031769;28;20032;-67
2023/01/05 09:31:57;;;;;;;11.03;6.43;;;;;;;-8.46;90.85;101271.00;5014188;28;20026;-66
2023/01/05 09:34:23;;;;;;;9.03;5.70;;;;;;;-8.31;91.19;101291.34;5032087;28;20465;-67
2023/01/05 09:36:48;;;;;;;12.47;6.50;;;;;;;-8.29;90.16;101288.75;5031945;28;20033;-64
2023/01/05 09:39:14;;;;;;;8.23;5.33;;;;;;;-8.17;89.79;101298.81;5031789;28;20025;-65
2023/01/05 09:41:52;;;;;;;11.00;6.70;;;;;;;-8.08;89.82;101302.97;5031525;28;20021;-67
2023/01/05 09:44:32;;;;;;;13.70;7.05;;;;;;;-8.14;88.79;101302.19;5014221;28;20025;-67
2023/01/05 09:47:02;;;;;;;9.95;5.75;;;;;;;-8.08;88.26;101314.16;5014425;28;20500;-66
2023/01/05 09:49:30;;;;;;;10.10;6.22;;;;;;;-8.23;87.43;101319.63;5031765;28;20026;-67
2023/01/05 09:52:01;;;;;;;7.70;5.25;;;;;;;-8.55;87.57;101317.69;5031403;28;20034;-66
2023/01/05 09:54:31;;;;;;;9.40;5.47;;;;;;;-8.72;87.69;101328.31;5031598;28;20143;-67
2023/01/05 09:56:58;;;;;;;8.25;5.35;;;;;;;-8.81;87.82;101331.91;5031971;28;20022;-65
2023/01/05 09:59:28;;;;;;;6.97;5.28;;;;;;;-8.82;88.33;101329.34;5014016;28;20081;-65
2023/01/05 10:02:00;;;;;;;8.65;5.38;;;;;;;-8.97;87.91;101334.75;5033273;28;20156;-68
2023/01/05 10:04:28;;;;;;;8.40;5.63;;;;;;;-9.06;90.23;101325.47;5035261;28;20158;-66
2023/01/05 10:07:00;;;;;;;8.23;5.27;;;;;;;-9.04;90.18;101335.75;5034974;28;20033;-66
2023/01/05 10:09:32;;;;;;;8.93;6.10;;;;;;;-9.12;89.95;101336.72;5035518;28;20275;-66
2023/01/05 10:15:04;;;;;;;8.27;5.63;;;;;;;-9.21;90.50;101313.69;5036204;28;20057;-67
2023/01/05 10:17:40;;;;;;;9.60;7.25;;;;;;;-9.06;89.24;101364.16;5036185;28;20403;-66
2023/01/05 10:20:13;;;;;;;13.85;7.20;;;;;;;-9.10;88.56;101347.88;5034917;28;20037;-68
2023/01/05 10:22:46;;;;;;;6.53;5.93;;;;;;;-9.12;87.50;101354.78;5035000;28;20060;-66
2023/01/05 10:25:22;;;;;;;8.05;5.50;;;;;;;-9.22;88.63;101340.34;5017188;28;20061;-67
2023/01/05 10:28:00;;;;;;;9.27;6.25;;;;;;;-9.14;88.68;101343.66;5034863;28;20032;-68
2023/01/05 10:30:35;;;;;;;5.10;4.60;;;;;;;-9.01;88.63;101343.44;5034984;28;20120;-66
2023/01/05 10:33:11;;;;;;;8.63;5.78;;;;;;;-8.94;88.64;101347.66;5035116;28;20037;-68
2023/01/05 10:36:18;;;;;;;6.30;5.22;;;;;;;-8.95;88.30;101364.00;5017749;28;20083;-66
2023/01/05 10:39:03;;;;;;;8.32;5.63;;;;;;;-9.00;88.76;101343.41;5034931;28;20037;-66
2023/01/05 10:41:40;;;;;;;9.68;5.72;;;;;;;-8.99;89.33;101352.00;5035177;28;20120;-65
2023/01/05 10:44:15;;;;;;;11.23;7.65;;;;;;;-9.03;89.06;101340.03;5017084;28;20021;-66
2023/01/05 10:46:47;;;;;;;8.27;5.97;;;;;;;-8.97;89.82;101343.34;5034987;28;20470;-67
2023/01/05 10:49:25;;;;;;;10.98;7.28;;;;;;;-8.93;89.62;101349.34;5034779;28;20079;-66
2023/01/05 10:51:51;;;;;;;8.88;6.40;;;;;;;-8.80;89.22;101356.00;5036429;28;20056;-66
2023/01/05 10:54:39;;;;;;;10.33;6.57;;;;;;;-8.73;88.62;101359.31;5034300;28;20182;-67
2023/01/05 10:57:37;;;;;;;19.65;9.63;;;;;;;-8.68;89.15;101350.59;5025164;28;20351;-64
2023/01/05 11:00:11;;;;;;;11.05;7.00;;;;;;;-8.63;88.85;101350.56;5034565;28;20389;-67
2023/01/05 11:03:03;;;;;;;10.95;7.07;;;;;;;-8.80;87.54;101349.09;5034075;28;20045;-67
2023/01/05 11:05:36;;;;;;;8.90;6.25;;;;;;;-8.75;87.92;101356.75;5034419;28;20037;-68
2023/01/05 11:08:12;;;;;;;10.73;7.10;;;;;;;-8.80;87.96;101353.41;5034250;28;20033;-66
2023/01/05 11:11:00;;;;;;;8.68;6.10;;;;;;;-8.60;88.33;101364.25;5034507;28;20194;-65
2023/01/05 11:13:38;;;;;;;9.45;6.78;;;;;;;-8.54;87.57;101365.88;4999794;28;20060;-66
2023/01/05 11:16:14;;;;;;;11.43;7.05;;;;;;;-8.47;87.30;101368.31;5034252;28;20469;-64
2023/01/05 11:18:40;;;;;;;11.75;7.57;;;;;;;-8.53;86.65;101373.59;5035487;28;20037;-65
2023/01/05 11:21:33;;;;;;;8.93;6.93;;;;;;;-8.60;86.11;101368.56;5034205;28;20028;-66
2023/01/05 11:23:58;;;;;;;9.50;7.10;;;;;;;-8.66;87.08;101369.53;5020345;28;20037;-67
2023/01/05 11:26:36;;;;;;;9.90;5.83;;;;;;;-8.69;87.02;101346.31;5034048;28;20040;-64
2023/01/05 11:29:07;;;;;;;10.20;8.45;;;;;;;-8.48;87.70;101371.78;5034139;28;20025;-66
2023/01/05 11:31:47;;;;;;;12.30;7.03;;;;;;;-8.44;86.43;101370.00;5034062;28;20040;-66
2023/01/05 11:34:18;;;;;;;13.85;7.45;;;;;;;-8.39;86.78;101375.06;5033484;28;20382;-67
2023/01/05 11:36:55;;;;;;;11.95;6.82;;;;;;;-8.55;86.43;101359.88;5033669;28;20029;-65
2023/01/05 11:39:28;;;;;;;11.35;7.13;;;;;;;-8.75;86.66;101364.50;5033909;28;20053;-68
2023/01/05 11:42:31;;;;;;;10.27;6.50;;;;;;;-8.81;87.46;101372.38;5033735;28;20477;-67
2023/01/05 11:45:15;;;;;;;12.25;8.25;;;;;;;-8.87;87.88;101377.63;4972473;28;20027;-66
2023/01/05 11:48:02;;;;;;;10.65;7.65;;;;;;;-8.95;87.87;101382.06;5029596;28;20087;-64
2023/01/05 11:50:39;;;;;;;8.75;5.80;;;;;;;-9.00;88.89;101386.44;5033399;28;20358;-67
2023/01/05 11:53:20;;;;;;;10.18;6.53;;;;;;;-8.99;88.91;101382.97;5033218;28;20029;-67
2023/01/05 11:55:45;;;;;;;10.30;6.60;;;;;;;-8.97;88.74;101370.91;5033516;28;20025;-66
2023/01/05 11:58:16;;;;;;;9.47;6.53;;;;;;;-9.00;88.67;101383.84;5033806;28;20030;-66
2023/01/05 12:01:06;;;;;;;10.07;7.75;;;;;;;-9.02;89.38;101391.63;5032980;28;20369;-67
2023/01/05 12:03:53;;;;;;;8.98;6.82;;;;;;;-8.94;89.43;101381.19;5033476;28;20041;-67
2023/01/05 12:06:28;;;;;;;9.32;5.95;;;;;;;-8.91;89.23;101387.16;5032841;28;20045;-66
2023/01/05 12:09:10;;;;;;;18.48;8.13;;;;;;;-8.90;88.79;101390.59;5033415;28;20060;-64